Ana Sayfa
METAR-TAF:

METAR-TAF

Havaalanları :

Santiago de los Caballeros, Dominik Cumhuriyeti

Enlem: 19-27N, Boylam: 070-42W, yükseklik: 183 m

Güncel hava durumu gözlemi

Rapor saat 05:00 UTC de 26 dakika önce yapıldı.
Rüzgar değişken yönden 3 kt
Sıcaklık 23°C
Nem 100%
Basınç 1015 hPa
Görüş mesafesi 10 km veya daha fazla
1600 ft yükseklikte parçalı bulutlu
30000 ft yükseklikte parçalı bulutlu

METAR: MDST 160500Z VRB03KT 9999 SCT016 SCT300 23/23 Q1015

Saat: 01:26 (05:26 UTC)

Tahmin

Rapor saat 22:00 UTC de 7 saat ve 26 dakika önce yapıldı.
Ayın 16'si saat 00 UTC'den ayın 17'si saat 00 UTC'ye kadar geçerli Tahmin
Rüzgar doğudan 8 kt
Görüş mesafesi 10 km veya daha fazla
1800 ft yükseklikte az bulutlu
30000 ft yükseklikte parçalı bulutlu
Dönüşüyor
ayın 16'si saat 05 UTC'den ayın 16'si saat 07 UTC'ye kadar
Rüzgar kuzeydan kt

TAF: MDST 152200Z 1600/1700 09008KT 9999 FEW018 SCT300 BECMG 1605/1607 00000KT

4.000'den fazla havaalanı için hava durumu gözlemleri ve tahminleri (METAR ve TAF raporları).

Kullanılabilir istasyonlar harita üzerinde sarı ve kırmızı noktalarla gösterilir.

İstasyonun adını görmek için fareyi noktanın üzerinde gezdirin.

Sonrasında hava gözlem ve tahminlerini görmek için tıklayın.

Haritayı değiştirmek için: yaklaştırmak için siyah artı işaretli yeşil düğmeye ve uzaklaştırmak için de eksi işaretli düğmeye hızla tıklayın; bitişik haritalar için yeşil okları kullanın.


METAR-TAF: